Time;durP1;ratioP1;P1;durP2;ratioP2;P2;SDS_P1;SDS_P2;PMS_P1;PMS_P2;Temp;Humidity;BMP_temperature;BMP_pressure;BME280_temperature;BME280_humidity;BME280_pressure;Samples;Min_cycle;Max_cycle;Signal;HPM_P1;HPM_P2
2023/01/17 00:02:19;;;;;;;241.15;20.45;;;;;;;4.03;100.00;96432.78;4501028;31;20128;-69
2023/01/17 00:10:22;;;;;;;262.00;21.95;;;;;;;4.02;100.00;96405.25;4491447;31;20588;-69
2023/01/17 00:12:56;;;;;;;138.88;18.37;;;;;;;3.88;100.00;96414.41;4485593;31;20129;-69
2023/01/17 00:15:25;;;;;;;232.30;21.70;;;;;;;3.97;100.00;96410.09;4484276;32;20103;-69
2023/01/17 00:17:52;;;;;;;281.52;23.30;;;;;;;4.05;100.00;96420.47;4485393;31;20096;-69
2023/01/17 00:26:04;;;;;;;;;;;;;;;4.09;100.00;96423.59;4501374;31;20895;-68
2023/01/17 01:33:36;;;;;;;241.02;21.85;;;;;;;4.42;100.00;96426.31;4500486;31;20100;-68
2023/01/17 01:36:06;;;;;;;88.00;17.87;;;;;;;4.38;100.00;96431.00;4499993;31;20099;-68
2023/01/17 01:38:33;;;;;;;80.10;15.00;;;;;;;4.36;100.00;96432.94;4500491;31;20151;-68
2023/01/17 01:41:00;;;;;;;173.70;21.35;;;;;;;4.63;100.00;96441.44;4499940;31;20406;-68
2023/01/17 01:43:48;;;;;;;107.25;17.20;;;;;;;4.54;100.00;96432.84;4500158;31;20480;-68
2023/01/17 01:46:28;;;;;;;180.75;17.60;;;;;;;4.69;100.00;96427.84;4499936;31;20174;-68
2023/01/17 01:49:01;;;;;;;115.43;18.83;;;;;;;4.52;100.00;96408.84;4499887;31;20114;-68
2023/01/17 01:51:32;;;;;;;98.95;16.50;;;;;;;4.49;100.00;96401.38;4500102;31;20159;-68
2023/01/17 01:54:24;;;;;;;47.55;15.43;;;;;;;4.65;100.00;96390.25;4500014;31;20080;-68
2023/01/17 01:56:53;;;;;;;41.28;15.40;;;;;;;4.79;100.00;96391.41;4498717;31;20119;-68
2023/01/17 01:59:21;;;;;;;31.17;14.05;;;;;;;4.79;100.00;96379.25;4499942;31;20156;-68
2023/01/17 02:01:50;;;;;;;38.08;16.37;;;;;;;4.81;100.00;96381.69;4498699;31;20163;-68
2023/01/17 02:04:18;;;;;;;32.50;14.95;;;;;;;4.81;100.00;96384.28;4499894;31;20092;-68
2023/01/17 02:06:49;;;;;;;32.22;14.32;;;;;;;4.90;100.00;96383.31;4499343;31;20489;-68
2023/01/17 02:09:17;;;;;;;34.25;14.20;;;;;;;4.93;100.00;96390.78;4495543;31;20118;-68
2023/01/17 02:11:46;;;;;;;34.15;15.27;;;;;;;4.98;100.00;96390.28;4482544;32;20184;-68
2023/01/17 02:14:20;;;;;;;45.17;15.98;;;;;;;4.87;100.00;96398.38;4483545;32;20104;-68
2023/01/17 02:17:07;;;;;;;89.35;18.87;;;;;;;4.83;100.00;96391.91;4486143;31;20164;-68
2023/01/17 02:20:19;;;;;;;100.15;17.27;;;;;;;4.44;100.00;96390.69;4486211;31;20459;-68
2023/01/17 02:22:59;;;;;;;155.15;17.05;;;;;;;4.54;100.00;96383.59;4498176;31;20585;-68
2023/01/17 02:25:25;;;;;;;265.12;25.48;;;;;;;4.47;100.00;96372.22;4501780;31;20491;-68
2023/01/17 02:28:19;;;;;;;261.80;24.23;;;;;;;4.52;100.00;96380.31;4501626;31;20441;-68
2023/01/17 02:30:53;;;;;;;271.17;25.62;;;;;;;4.65;100.00;96373.87;4500663;31;20084;-68
2023/01/17 02:33:20;;;;;;;206.63;22.85;;;;;;;4.46;100.00;96377.56;4500341;31;20100;-68
2023/01/17 02:35:55;;;;;;;140.40;20.35;;;;;;;4.43;100.00;96376.88;4501589;31;20118;-68
2023/01/17 02:38:37;;;;;;;183.82;23.45;;;;;;;4.53;100.00;96365.59;4500409;31;20096;-68
2023/01/17 02:41:08;;;;;;;113.47;22.17;;;;;;;4.51;100.00;96364.94;4501842;31;20083;-68
2023/01/17 02:43:36;;;;;;;148.02;20.92;;;;;;;4.54;100.00;96359.41;4500494;31;20159;-68
2023/01/17 02:46:03;;;;;;;76.37;19.40;;;;;;;4.60;100.00;96348.41;4500439;31;20108;-68
2023/01/17 02:48:32;;;;;;;61.35;18.62;;;;;;;4.66;100.00;96342.59;4501383;31;20088;-68
2023/01/17 02:51:38;;;;;;;36.17;15.85;;;;;;;4.60;100.00;96333.69;4500384;31;20079;-68
2023/01/17 02:54:11;;;;;;;41.72;15.75;;;;;;;4.66;100.00;96332.22;4501574;31;20111;-68
2023/01/17 02:56:39;;;;;;;;;;;;;;;4.76;100.00;96327.69;4501946;31;20199;-68
2023/01/17 02:59:31;;;;;;;33.42;15.32;;;;;;;4.88;100.00;96324.78;4501613;31;19975;-68
2023/01/17 03:02:19;;;;;;;38.58;15.70;;;;;;;4.92;100.00;96320.88;4501364;31;20100;-68
2023/01/17 03:05:18;;;;;;;33.28;14.70;;;;;;;4.87;100.00;96315.38;4501696;31;20087;-68
2023/01/17 03:07:47;;;;;;;35.20;14.23;;;;;;;4.86;100.00;96309.41;4500140;31;20455;-68
2023/01/17 03:10:15;;;;;;;36.95;15.57;;;;;;;4.90;100.00;96305.47;4482115;31;20112;-68
2023/01/17 03:12:42;;;;;;;36.13;14.68;;;;;;;4.89;100.00;96309.06;4468925;32;20100;-68
2023/01/17 03:15:12;;;;;;;36.05;15.07;;;;;;;4.86;100.00;96304.19;4469882;32;20163;-68
2023/01/17 03:17:45;;;;;;;31.25;14.63;;;;;;;4.95;100.00;96297.22;4470224;32;20156;-68
2023/01/17 03:20:13;;;;;;;30.20;12.82;;;;;;;4.89;100.00;96298.69;4468836;32;20443;-68
2023/01/17 03:22:40;;;;;;;33.33;13.18;;;;;;;4.88;100.00;96297.06;4492624;31;20446;-68
2023/01/17 03:25:07;;;;;;;26.87;13.13;;;;;;;4.92;100.00;96293.19;4500516;31;20179;-68
2023/01/17 03:27:35;;;;;;;27.80;11.55;;;;;;;4.91;100.00;96285.56;4501484;31;20119;-68
2023/01/17 03:30:03;;;;;;;30.83;11.73;;;;;;;4.92;100.00;96277.62;4501360;31;20217;-68
2023/01/17 03:32:30;;;;;;;26.42;10.88;;;;;;;4.87;100.00;96268.69;4501130;31;20498;-68
2023/01/17 03:34:57;;;;;;;28.75;12.13;;;;;;;4.96;100.00;96272.91;4501384;31;20565;-68
2023/01/17 03:37:24;;;;;;;26.05;12.45;;;;;;;5.05;100.00;96263.31;4501214;31;20206;-68
2023/01/17 03:39:52;;;;;;;30.02;12.85;;;;;;;5.02;100.00;96271.44;4501616;31;20096;-68
2023/01/17 03:42:19;;;;;;;27.83;12.02;;;;;;;5.11;100.00;96280.81;4501314;31;20091;-68
2023/01/17 03:44:46;;;;;;;26.48;11.43;;;;;;;5.05;100.00;96266.72;4501293;31;20103;-68
2023/01/17 03:47:13;;;;;;;24.65;11.80;;;;;;;5.01;100.00;96268.03;4501221;31;20521;-68
2023/01/17 03:49:40;;;;;;;24.37;11.55;;;;;;;5.02;100.00;96264.44;4501015;31;20087;-68
2023/01/17 03:52:08;;;;;;;23.12;9.25;;;;;;;5.02;100.00;96261.06;4501169;31;20156;-68
2023/01/17 03:54:35;;;;;;;17.45;9.27;;;;;;;4.92;100.00;96264.63;4501112;31;20176;-68
2023/01/17 03:57:02;;;;;;;20.20;9.55;;;;;;;5.05;100.00;96266.72;4501259;31;20166;-68
2023/01/17 03:59:32;;;;;;;21.12;8.77;;;;;;;4.93;100.00;96270.62;4501202;31;20597;-68
2023/01/17 04:01:59;;;;;;;18.35;8.70;;;;;;;4.87;100.00;96274.69;4501142;31;20091;-68
2023/01/17 04:04:27;;;;;;;21.20;7.97;;;;;;;4.88;100.00;96265.94;4501292;31;20167;-68
2023/01/17 04:06:54;;;;;;;21.05;8.40;;;;;;;4.92;100.00;96266.41;4501117;31;20117;-68
2023/01/17 04:09:21;;;;;;;16.02;7.65;;;;;;;5.06;100.00;96263.16;4497489;31;20169;-68
2023/01/17 04:11:49;;;;;;;13.88;7.35;;;;;;;5.12;100.00;96267.69;4485446;32;20141;-68
2023/01/17 04:14:16;;;;;;;12.98;6.97;;;;;;;5.03;100.00;96263.50;4485022;32;20130;-68
2023/01/17 04:16:44;;;;;;;13.85;6.12;;;;;;;5.13;100.00;96263.31;4485253;31;20122;-68
2023/01/17 04:19:12;;;;;;;13.75;6.35;;;;;;;4.95;100.00;96266.91;4483958;32;20219;-69
2023/01/17 04:21:39;;;;;;;12.55;5.93;;;;;;;5.01;100.00;96270.62;4489741;31;20153;-69
2023/01/17 04:24:06;;;;;;;17.20;6.87;;;;;;;5.21;100.00;96276.28;4500961;31;20449;-68
2023/01/17 04:26:34;;;;;;;14.52;6.50;;;;;;;5.30;100.00;96279.69;4500833;31;20095;-68
2023/01/17 04:29:01;;;;;;;13.68;6.18;;;;;;;5.37;100.00;96274.63;4501211;31;20151;-68
2023/01/17 04:31:28;;;;;;;13.77;6.03;;;;;;;5.26;100.00;96273.19;4500829;31;20465;-68
2023/01/17 04:33:56;;;;;;;10.55;5.57;;;;;;;5.17;100.00;96269.78;4500924;31;20151;-69
2023/01/17 04:36:23;;;;;;;7.87;4.62;;;;;;;5.26;100.00;96281.78;4500518;31;20512;-68
2023/01/17 04:38:50;;;;;;;14.55;4.82;;;;;;;5.35;100.00;96274.78;4500899;31;20084;-69
2023/01/17 04:41:17;;;;;;;8.05;4.00;;;;;;;5.41;100.00;96274.13;4501142;31;20088;-68
2023/01/17 04:43:44;;;;;;;8.55;3.92;;;;;;;5.36;100.00;96268.63;4500948;31;20126;-68
2023/01/17 04:46:12;;;;;;;6.18;2.90;;;;;;;5.41;100.00;96262.94;4500850;31;20114;-69
2023/01/17 04:48:39;;;;;;;6.12;2.65;;;;;;;5.42;100.00;96261.94;4500599;31;20092;-69
2023/01/17 04:51:06;;;;;;;5.40;2.67;;;;;;;5.40;100.00;96274.28;4500932;31;20096;-68
2023/01/17 04:53:34;;;;;;;6.15;2.70;;;;;;;5.42;100.00;96286.12;4500590;31;20391;-69
2023/01/17 04:56:01;;;;;;;5.65;2.12;;;;;;;5.39;100.00;96283.03;4500802;31;20091;-68
2023/01/17 04:58:29;;;;;;;5.62;2.15;;;;;;;5.33;100.00;96285.34;4500380;31;20126;-69
2023/01/17 05:01:00;;;;;;;6.55;2.30;;;;;;;5.36;100.00;96279.00;4500694;31;20845;-69
2023/01/17 05:03:28;;;;;;;7.68;1.83;;;;;;;5.28;100.00;96279.84;4500649;31;20437;-69
2023/01/17 05:05:55;;;;;;;5.35;2.40;;;;;;;5.20;100.00;96279.03;4500286;31;20180;-69
2023/01/17 05:08:22;;;;;;;4.93;2.00;;;;;;;5.21;100.00;96283.22;4496646;31;20176;-69
2023/01/17 05:10:50;;;;;;;5.03;1.90;;;;;;;5.29;100.00;96278.84;4471831;31;20096;-69
2023/01/17 05:13:18;;;;;;;6.65;2.25;;;;;;;5.28;100.00;96284.19;4469020;32;20084;-69
2023/01/17 05:15:45;;;;;;;7.15;2.47;;;;;;;5.37;100.00;96279.81;4469100;32;20088;-69
2023/01/17 05:18:16;;;;;;;8.73;3.03;;;;;;;5.46;100.00;96282.22;4469105;32;20192;-69
2023/01/17 05:20:43;;;;;;;3.83;2.00;;;;;;;5.51;100.00;96281.72;4468878;32;20111;-69
2023/01/17 05:23:11;;;;;;;4.15;2.42;;;;;;;5.62;100.00;96281.37;4498110;31;20164;-69
2023/01/17 05:25:43;;;;;;;6.78;2.10;;;;;;;5.50;100.00;96285.31;4500117;31;20122;-69
2023/01/17 05:28:11;;;;;;;4.12;2.20;;;;;;;5.53;100.00;96291.94;4499926;31;20115;-69
2023/01/17 05:30:38;;;;;;;8.05;2.42;;;;;;;5.45;100.00;96283.19;4489801;31;20135;-69
2023/01/17 05:33:07;;;;;;;5.25;2.15;;;;;;;5.51;100.00;96282.53;4475118;32;20110;-69
2023/01/17 05:35:34;;;;;;;5.85;2.58;;;;;;;5.53;100.00;96290.16;4478564;32;20096;-69
2023/01/17 05:38:01;;;;;;;6.75;2.83;;;;;;;5.51;100.00;96292.94;4468729;32;20117;-69
2023/01/17 05:40:30;;;;;;;5.53;2.47;;;;;;;5.51;100.00;96298.13;4468841;32;20113;-69
2023/01/17 05:42:58;;;;;;;6.68;3.03;;;;;;;5.51;100.00;96297.28;4468570;32;20270;-69
2023/01/17 05:45:28;;;;;;;5.68;2.65;;;;;;;5.57;100.00;96304.44;4468712;32;20123;-69
2023/01/17 05:47:56;;;;;;;5.32;2.47;;;;;;;5.60;100.00;96313.66;4468310;32;20121;-69
2023/01/17 05:50:26;;;;;;;5.32;2.12;;;;;;;5.56;100.00;96326.19;4470390;32;20102;-69
2023/01/17 05:52:56;;;;;;;3.72;2.35;;;;;;;5.49;100.00;96326.00;4469341;32;20104;-69
2023/01/17 05:55:24;;;;;;;7.68;2.28;;;;;;;5.58;100.00;96334.59;4469595;32;20479;-69
2023/01/17 05:57:51;;;;;;;4.00;2.22;;;;;;;5.58;100.00;96339.00;4469882;32;22054;-69
2023/01/17 06:00:19;;;;;;;6.05;2.80;;;;;;;5.51;100.00;96344.84;4478419;32;20093;-69
2023/01/17 06:02:47;;;;;;;5.80;2.37;;;;;;;5.58;100.00;96339.00;4475171;31;20165;-69
2023/01/17 06:05:15;;;;;;;5.82;2.60;;;;;;;5.62;100.00;96348.09;4469022;32;20096;-69
2023/01/17 06:07:44;;;;;;;4.30;2.08;;;;;;;5.48;100.00;96345.19;4469866;32;20145;-69
2023/01/17 06:10:13;;;;;;;3.12;1.90;;;;;;;5.42;100.00;96345.84;4475481;32;20104;-69
2023/01/17 06:12:41;;;;;;;4.68;2.20;;;;;;;5.38;100.00;96349.75;4481637;32;20146;-71
2023/01/17 06:15:10;;;;;;;6.25;2.12;;;;;;;5.35;100.00;96354.47;4481434;32;20092;-71
2023/01/17 06:17:37;;;;;;;7.95;2.95;;;;;;;5.29;100.00;96355.91;4472690;31;20156;-71
2023/01/17 06:20:06;;;;;;;5.43;2.22;;;;;;;5.27;100.00;96356.09;4474564;32;20527;-71
2023/01/17 06:22:33;;;;;;;4.75;2.85;;;;;;;5.17;100.00;96357.22;4476038;31;20126;-71
2023/01/17 06:25:01;;;;;;;4.85;2.65;;;;;;;5.21;100.00;96356.75;4478426;32;20163;-71
2023/01/17 06:27:28;;;;;;;6.47;3.17;;;;;;;5.17;100.00;96357.22;4479957;31;20096;-71
2023/01/17 06:29:55;;;;;;;6.00;3.12;;;;;;;5.24;100.00;96358.19;4468040;32;20536;-71
2023/01/17 06:32:23;;;;;;;4.07;2.92;;;;;;;5.19;100.00;96365.66;4469233;32;20105;-71
2023/01/17 06:34:50;;;;;;;7.28;3.03;;;;;;;5.22;100.00;96379.09;4469035;32;20104;-71
2023/01/17 06:37:18;;;;;;;7.20;3.15;;;;;;;5.10;100.00;96376.06;4472496;32;20164;-71
2023/01/17 06:39:45;;;;;;;7.47;3.87;;;;;;;5.18;100.00;96389.97;4470674;32;20108;-71
2023/01/17 06:42:12;;;;;;;5.85;3.03;;;;;;;5.09;100.00;96386.59;4469515;32;20092;-71
2023/01/17 06:44:39;;;;;;;7.80;3.60;;;;;;;5.15;100.00;96393.72;4472001;32;20672;-71
2023/01/17 06:47:07;;;;;;;5.65;3.22;;;;;;;5.09;100.00;96391.78;4479915;32;20461;-71
2023/01/17 06:49:34;;;;;;;5.32;3.33;;;;;;;5.07;100.00;96406.69;4473142;31;20118;-72
2023/01/17 06:52:01;;;;;;;7.30;3.47;;;;;;;5.16;100.00;96405.72;4474349;32;20449;-72
2023/01/17 06:54:28;;;;;;;7.07;3.28;;;;;;;5.09;100.00;96412.53;4481911;31;20619;-72
2023/01/17 06:56:56;;;;;;;7.53;3.62;;;;;;;5.13;100.00;96422.44;4467323;32;20528;-70
2023/01/17 06:59:24;;;;;;;5.15;2.65;;;;;;;5.06;100.00;96424.03;4473753;32;20158;-71
2023/01/17 07:01:51;;;;;;;5.60;3.25;;;;;;;5.08;100.00;96423.88;4477587;32;20157;-70
2023/01/17 07:04:18;;;;;;;5.82;3.20;;;;;;;5.04;100.00;96423.41;4478509;31;20117;-71
2023/01/17 07:06:45;;;;;;;8.15;2.70;;;;;;;4.93;100.00;96434.06;4469748;32;20786;-69
2023/01/17 07:09:13;;;;;;;6.22;3.25;;;;;;;4.78;100.00;96436.47;4469333;32;20101;-69
2023/01/17 07:11:40;;;;;;;7.18;3.37;;;;;;;4.88;100.00;96444.13;4473079;32;20790;-71
2023/01/17 07:14:14;;;;;;;4.32;2.85;;;;;;;4.80;100.00;96435.34;4469308;32;20108;-70
2023/01/17 07:16:44;;;;;;;5.20;2.95;;;;;;;4.77;100.00;96451.22;4484012;31;20591;-71
2023/01/17 07:19:12;;;;;;;6.75;2.97;;;;;;;4.74;100.00;96451.53;4474087;32;20093;-71
2023/01/17 07:21:39;;;;;;;5.37;2.95;;;;;;;4.68;100.00;96462.56;4477800;31;20088;-70
2023/01/17 07:24:08;;;;;;;6.75;2.92;;;;;;;4.64;100.00;96460.44;4482944;31;20205;-70
2023/01/17 07:26:39;;;;;;;3.15;1.73;;;;;;;4.47;100.00;96469.91;4474442;32;20151;-70
2023/01/17 07:29:06;;;;;;;5.78;1.87;;;;;;;4.36;100.00;96474.41;4473475;32;20131;-70
2023/01/17 07:31:35;;;;;;;3.20;1.80;;;;;;;4.32;100.00;96488.63;4466957;31;20160;-69
2023/01/17 07:34:02;;;;;;;4.15;1.70;;;;;;;4.29;100.00;96488.16;4475678;32;20099;-70
2023/01/17 07:36:29;;;;;;;2.33;1.50;;;;;;;4.40;100.00;96498.25;4472390;31;20109;-71
2023/01/17 07:38:57;;;;;;;3.55;1.40;;;;;;;4.39;100.00;96497.44;4470504;32;20161;-71
2023/01/17 07:41:24;;;;;;;2.10;1.23;;;;;;;4.42;100.00;96510.09;4471939;32;20161;-71
2023/01/17 07:43:51;;;;;;;2.22;1.27;;;;;;;4.34;100.00;96517.00;4476232;32;20088;-70
2023/01/17 07:46:22;;;;;;;2.58;0.90;;;;;;;4.35;100.00;96522.03;4469903;32;20135;-71
2023/01/17 07:48:49;;;;;;;4.12;1.12;;;;;;;4.33;100.00;96530.91;4471058;32;20123;-70
2023/01/17 07:51:17;;;;;;;1.60;0.90;;;;;;;4.30;100.00;96537.25;4468245;32;20153;-71
2023/01/17 07:53:44;;;;;;;1.65;0.88;;;;;;;4.37;100.00;96538.22;4474356;32;20496;-70
2023/01/17 07:56:11;;;;;;;2.12;1.23;;;;;;;4.34;100.00;96542.91;4471902;31;20105;-69
2023/01/17 07:58:38;;;;;;;1.62;0.90;;;;;;;4.32;100.00;96537.88;4468947;32;20088;-70
2023/01/17 08:01:08;;;;;;;1.58;0.90;;;;;;;4.46;100.00;96548.66;4469507;32;20135;-70
2023/01/17 08:03:38;;;;;;;2.00;1.30;;;;;;;4.68;100.00;96557.69;4472691;32;20183;-70
2023/01/17 08:06:15;;;;;;;1.50;0.80;;;;;;;4.91;100.00;96552.78;4478336;31;20144;-70
2023/01/17 08:08:43;;;;;;;1.30;0.90;;;;;;;5.07;100.00;96550.25;4470109;32;20593;-70
2023/01/17 08:11:10;;;;;;;2.35;0.70;;;;;;;5.10;100.00;96555.13;4473490;32;20127;-71
2023/01/17 08:13:37;;;;;;;1.17;0.75;;;;;;;5.03;100.00;96553.31;4469476;32;20122;-71
2023/01/17 08:16:05;;;;;;;2.30;0.93;;;;;;;4.78;100.00;96561.81;4470531;32;20118;-71
2023/01/17 08:18:32;;;;;;;0.62;0.50;;;;;;;4.60;100.00;96556.69;4473884;32;20411;-70
2023/01/17 08:20:59;;;;;;;1.35;0.70;;;;;;;4.45;100.00;96550.41;4473454;31;20284;-71
2023/01/17 08:23:27;;;;;;;1.33;0.80;;;;;;;4.58;100.00;96555.22;4479004;31;20582;-70
2023/01/17 08:25:59;;;;;;;1.12;0.50;;;;;;;4.54;100.00;96553.88;4472343;31;20199;-70
2023/01/17 08:28:26;;;;;;;0.55;0.50;;;;;;;4.63;100.00;96552.94;4473020;31;20156;-72
2023/01/17 08:30:53;;;;;;;0.30;0.25;;;;;;;4.62;100.00;96569.50;4471800;32;20108;-72
2023/01/17 08:33:20;;;;;;;0.90;0.55;;;;;;;4.43;100.00;96578.28;4471404;31;20104;-72
2023/01/17 08:35:52;;;;;;;0.82;0.40;;;;;;;4.44;100.00;96574.75;4471925;32;20160;-70
2023/01/17 08:38:22;;;;;;;1.77;0.35;;;;;;;4.24;100.00;96581.91;4471495;32;20089;-71
2023/01/17 08:40:50;;;;;;;0.80;0.45;;;;;;;4.20;100.00;96576.19;4470613;32;20092;-71
2023/01/17 08:43:18;;;;;;;0.52;0.40;;;;;;;4.13;100.00;96577.75;4474783;32;20540;-71
2023/01/17 08:45:47;;;;;;;0.43;0.22;;;;;;;4.16;100.00;96582.62;4468264;32;84841;-71
2023/01/17 08:48:15;;;;;;;0.82;0.40;;;;;;;4.27;100.00;96573.84;4475713;32;20113;-71
2023/01/17 08:50:42;;;;;;;0.20;0.20;;;;;;;4.40;100.00;96586.37;4470636;31;20152;-71
2023/01/17 08:53:09;;;;;;;0.80;0.40;;;;;;;4.58;100.00;96581.94;4471742;32;20142;-71
2023/01/17 08:55:39;;;;;;;0.60;0.40;;;;;;;4.72;100.00;96577.97;4467441;32;20092;-70
2023/01/17 08:58:07;;;;;;;1.05;0.60;;;;;;;4.95;100.00;96580.00;4468406;32;20084;-70
2023/01/17 09:00:36;;;;;;;0.62;0.40;;;;;;;5.05;100.00;96582.50;4471027;32;20126;-70
2023/01/17 09:03:09;;;;;;;0.68;0.35;;;;;;;5.21;100.00;96577.38;4469540;32;20160;-71
2023/01/17 09:05:36;;;;;;;0.50;0.30;;;;;;;5.25;100.00;96593.44;4467544;32;20165;-72
2023/01/17 09:08:04;;;;;;;0.62;0.55;;;;;;;5.31;100.00;96604.00;4468508;32;20202;-69
2023/01/17 09:10:32;;;;;;;0.28;0.28;;;;;;;5.31;100.00;96598.00;4467635;32;20518;-70
2023/01/17 09:12:59;;;;;;;0.62;0.40;;;;;;;5.40;100.00;96602.22;4476029;32;20088;-69
2023/01/17 09:15:26;;;;;;;0.60;0.37;;;;;;;5.52;100.00;96597.56;4477461;32;20167;-69
2023/01/17 09:17:55;;;;;;;0.90;0.30;;;;;;;5.58;100.00;96598.72;4471946;31;20112;-69
2023/01/17 09:20:23;;;;;;;0.73;0.40;;;;;;;5.64;100.00;96601.47;4477809;32;20108;-70
2023/01/17 09:22:51;;;;;;;0.80;0.40;;;;;;;5.62;100.00;96600.03;4481190;31;20226;-70
2023/01/17 09:25:18;;;;;;;1.25;0.50;;;;;;;5.71;100.00;96604.25;4473094;31;20118;-69
2023/01/17 09:27:45;;;;;;;0.77;0.40;;;;;;;5.82;100.00;96613.53;4471587;32;20157;-70
2023/01/17 09:30:13;;;;;;;0.60;0.30;;;;;;;5.92;100.00;96631.56;4477196;32;20122;-70
2023/01/17 09:32:40;;;;;;;0.88;0.50;;;;;;;6.17;100.00;96638.44;4477472;31;20179;-70
2023/01/17 09:35:08;;;;;;;1.00;0.70;;;;;;;6.32;100.00;96640.41;4474799;32;20146;-70
2023/01/17 09:37:36;;;;;;;1.95;1.02;;;;;;;6.27;100.00;96638.28;4471505;31;20415;-70
2023/01/17 09:40:03;;;;;;;1.58;0.80;;;;;;;6.33;100.00;96645.44;4470944;32;20100;-70
2023/01/17 09:42:35;;;;;;;3.92;1.20;;;;;;;6.46;100.00;96657.13;4481719;32;20194;-70
2023/01/17 09:45:04;;;;;;;1.45;0.90;;;;;;;6.22;100.00;96659.56;4482183;32;20084;-69
2023/01/17 09:47:41;;;;;;;1.25;0.90;;;;;;;6.34;100.00;96660.06;4477203;32;20528;-70
2023/01/17 09:50:24;;;;;;;0.62;0.55;;;;;;;6.46;100.00;96660.53;4467752;32;20101;-69
2023/01/17 09:52:59;;;;;;;0.55;0.45;;;;;;;6.28;100.00;96660.69;4465784;32;20500;-70
2023/01/17 09:55:34;;;;;;;2.15;0.75;;;;;;;6.33;100.00;96662.84;4467157;32;20084;-70
2023/01/17 09:58:20;;;;;;;0.80;0.50;;;;;;;6.31;100.00;96677.78;4465874;32;20145;-70
2023/01/17 10:00:54;;;;;;;1.27;0.65;;;;;;;6.47;100.00;96680.38;4471340;32;20237;-70
2023/01/17 10:03:40;;;;;;;2.15;1.00;;;;;;;6.56;100.00;96678.59;4481409;31;20105;-70
2023/01/17 10:06:48;;;;;;;2.28;0.70;;;;;;;6.43;100.00;96688.66;4482408;31;20114;-70
2023/01/17 10:09:52;;;;;;;0.70;0.47;;;;;;;6.41;100.00;96688.84;4476517;31;20120;-70
2023/01/17 10:12:30;;;;;;;1.10;0.70;;;;;;;6.26;100.00;96690.47;4430858;32;20162;-70
2023/01/17 10:15:16;;;;;;;1.50;0.57;;;;;;;6.33;100.00;96687.03;4426585;32;20155;-70
2023/01/17 10:18:04;;;;;;;0.50;0.40;;;;;;;6.39;100.00;96681.19;4424888;32;20137;-70
2023/01/17 10:20:44;;;;;;;0.90;0.50;;;;;;;6.53;100.00;96676.31;4423875;32;20105;-70
2023/01/17 10:23:40;;;;;;;0.43;0.30;;;;;;;6.63;100.00;96678.75;4431516;32;20196;-70
2023/01/17 10:26:14;;;;;;;1.45;0.50;;;;;;;6.65;100.00;96684.63;4416249;32;20124;-70
2023/01/17 10:28:50;;;;;;;0.77;0.50;;;;;;;6.88;100.00;96680.34;4425131;32;20661;-70
2023/01/17 10:31:17;;;;;;;1.60;0.57;;;;;;;6.98;100.00;96684.53;4430841;32;20164;-70
2023/01/17 10:33:56;;;;;;;1.67;0.60;;;;;;;7.10;100.00;96678.00;4423667;32;20577;-69
2023/01/17 10:36:31;;;;;;;1.05;0.55;;;;;;;7.30;100.00;96673.25;4429896;32;20475;-72
2023/01/17 10:39:24;;;;;;;0.90;0.47;;;;;;;7.49;100.00;96672.03;4428899;32;20172;-71
2023/01/17 10:41:58;;;;;;;1.67;0.52;;;;;;;7.44;100.00;96664.72;4425732;32;20090;-71
2023/01/17 10:44:34;;;;;;;1.20;0.70;;;;;;;7.59;100.00;96661.41;4429784;32;20141;-70
2023/01/17 10:47:07;;;;;;;1.12;0.60;;;;;;;7.68;100.00;96647.34;4427062;32;20236;-71
2023/01/17 10:49:37;;;;;;;0.22;0.22;;;;;;;7.63;100.00;96650.47;4451827;32;20153;-72
2023/01/17 10:52:12;;;;;;;1.20;0.43;;;;;;;7.70;100.00;96652.38;4469911;32;20547;-71
2023/01/17 10:55:03;;;;;;;1.27;0.40;;;;;;;7.71;100.00;96648.81;4473090;32;20112;-71
2023/01/17 10:57:38;;;;;;;2.50;0.32;;;;;;;7.76;100.00;96642.06;4472629;32;20093;-73
2023/01/17 11:00:44;;;;;;;1.98;0.52;;;;;;;7.93;100.00;96639.37;4477286;32;20096;-71
2023/01/17 11:03:14;;;;;;;1.20;0.65;;;;;;;7.86;100.00;96628.84;4414419;32;20165;-71
2023/01/17 11:05:42;;;;;;;1.00;0.50;;;;;;;8.10;100.00;96622.66;4401353;32;20113;-66
2023/01/17 11:08:12;;;;;;;0.98;0.70;;;;;;;7.63;100.00;96619.19;4415984;32;20121;-68
2023/01/17 11:10:42;;;;;;;1.62;0.90;;;;;;;7.67;100.00;96621.47;4411234;32;20106;-72
2023/01/17 11:13:29;;;;;;;0.50;0.50;;;;;;;7.75;100.00;96626.63;4410028;32;20102;-71
2023/01/17 11:16:02;;;;;;;1.33;0.60;;;;;;;7.87;100.00;96612.19;4412715;32;20121;-72
2023/01/17 11:18:33;;;;;;;1.55;0.50;;;;;;;7.86;100.00;96607.16;4415196;32;20566;-71
2023/01/17 11:21:16;;;;;;;1.48;0.50;;;;;;;7.91;100.00;96600.44;4410051;32;20158;-72
2023/01/17 11:23:48;;;;;;;1.00;0.62;;;;;;;7.65;100.00;96603.41;4414477;32;20164;-73
2023/01/17 11:26:28;;;;;;;0.82;0.55;;;;;;;7.63;100.00;96598.34;4407594;32;20105;-71
2023/01/17 11:29:38;;;;;;;1.02;0.70;;;;;;;7.68;100.00;96599.63;4406392;32;20118;-71
2023/01/17 11:32:20;;;;;;;3.95;0.70;;;;;;;7.88;100.00;96581.75;4407535;32;20763;-72
2023/01/17 11:35:40;;;;;;;1.00;0.55;;;;;;;7.89;100.00;96583.34;4410204;32;20098;-71
2023/01/17 11:38:19;;;;;;;1.33;0.80;;;;;;;7.83;100.00;96579.66;4384727;32;20169;-71
2023/01/17 11:40:48;;;;;;;2.95;0.70;;;;;;;7.79;100.00;96571.34;4420898;32;20116;-71
2023/01/17 11:43:25;;;;;;;1.30;0.70;;;;;;;7.80;100.00;96570.38;4431255;32;20121;-72
2023/01/17 11:46:12;;;;;;;2.05;0.62;;;;;;;7.79;100.00;96578.37;4429388;32;20124;-71
2023/01/17 11:48:40;;;;;;;1.20;0.80;;;;;;;7.98;100.00;96579.72;4430278;32;20156;-72
2023/01/17 11:51:18;;;;;;;0.88;0.75;;;;;;;8.20;100.00;96580.66;4424087;32;20128;-71
2023/01/17 11:53:48;;;;;;;1.42;0.60;;;;;;;8.17;100.00;96591.44;4418170;32;20149;-72
2023/01/17 11:56:26;;;;;;;0.82;0.65;;;;;;;8.39;100.00;96588.97;4429374;32;20177;-72
2023/01/17 11:59:25;;;;;;;1.02;0.80;;;;;;;8.39;100.00;96600.25;4434564;32;20140;-72
2023/01/17 12:02:16;;;;;;;1.20;0.60;;;;;;;8.43;100.00;96613.72;4430283;32;20121;-73
2023/01/17 12:04:44;;;;;;;1.48;0.60;;;;;;;8.39;100.00;96610.69;4387786;32;20171;-72
2023/01/17 12:07:40;;;;;;;4.12;0.70;;;;;;;8.45;100.00;96609.19;4388040;32;20353;-72
2023/01/17 12:10:24;;;;;;;1.42;1.05;;;;;;;8.33;100.00;96596.53;4376521;32;20508;-72
2023/01/17 12:15:44;;;;;;;1.15;0.65;;;;;;;7.77;100.00;96606.41;4433607;32;19988;-71
2023/01/17 12:18:12;;;;;;;3.33;0.65;;;;;;;8.03;100.00;96611.28;4437780;32;20139;-71
2023/01/17 12:20:46;;;;;;;2.17;0.95;;;;;;;8.18;100.00;96608.72;4439793;32;20624;-71
2023/01/17 12:23:55;;;;;;;2.55;0.65;;;;;;;8.55;100.00;96604.50;4437452;32;20172;-72
2023/01/17 12:26:42;;;;;;;1.05;0.80;;;;;;;8.64;100.00;96607.88;4447612;32;20118;-73
2023/01/17 12:29:30;;;;;;;3.85;1.10;;;;;;;8.74;100.00;96591.97;4435815;32;20301;-73
2023/01/17 12:32:49;;;;;;;2.80;0.90;;;;;;;8.85;100.00;96594.09;4440221;32;20124;-72
2023/01/17 12:35:18;;;;;;;1.40;0.93;;;;;;;9.03;100.00;96591.12;4352864;32;20165;-72
2023/01/17 12:37:49;;;;;;;3.17;1.17;;;;;;;9.11;100.00;96598.88;4356590;32;20169;-72
2023/01/17 12:40:36;;;;;;;2.72;1.08;;;;;;;8.92;98.56;96596.78;4343717;32;20308;-72
2023/01/17 12:43:07;;;;;;;1.87;1.05;;;;;;;8.74;99.72;96584.13;4409228;32;20455;-71
2023/01/17 12:45:37;;;;;;;2.67;0.82;;;;;;;8.45;100.00;96589.13;4414696;32;20182;-70
2023/01/17 12:48:10;;;;;;;2.12;1.10;;;;;;;8.67;100.00;96578.78;4388455;32;20182;-71
2023/01/17 12:51:04;;;;;;;5.80;1.02;;;;;;;8.77;100.00;96576.72;4398721;32;20106;-72
2023/01/17 12:53:41;;;;;;;1.37;0.90;;;;;;;8.91;100.00;96566.47;4410279;32;20515;-71
2023/01/17 12:56:18;;;;;;;1.25;0.80;;;;;;;9.03;100.00;96570.25;4407435;32;20202;-71
2023/01/17 12:58:49;;;;;;;2.35;0.90;;;;;;;9.04;100.00;96575.28;4401579;32;20129;-70
2023/01/17 13:01:28;;;;;;;2.08;0.95;;;;;;;8.92;100.00;96581.97;4400114;32;20090;-70
2023/01/17 13:03:59;;;;;;;2.83;1.77;;;;;;;8.77;100.00;96570.72;4392512;32;21011;-70
2023/01/17 13:06:50;;;;;;;5.97;2.03;;;;;;;8.67;100.00;96563.94;4390497;32;20118;-72
2023/01/17 13:09:21;;;;;;;4.70;1.95;;;;;;;8.48;100.00;96577.53;4394085;32;20188;-71
2023/01/17 13:12:04;;;;;;;2.42;1.23;;;;;;;8.41;100.00;96577.38;4425074;32;20092;-71
2023/01/17 13:14:31;;;;;;;4.53;1.48;;;;;;;8.01;100.00;96576.75;4470596;32;20088;-71